createdAt,value
2023-03-19T10:08:39.128Z,7344.00
2023-03-19T10:09:38.920Z,6928.00
2023-03-19T10:10:38.839Z,7016.00
2023-03-19T10:11:38.729Z,7828.00
2023-03-19T10:12:38.693Z,12032.00
2023-03-19T10:13:38.610Z,14632.00
2023-03-19T10:14:38.535Z,19200.00
2023-03-19T10:15:38.436Z,19584.00
2023-03-19T10:17:38.376Z,18560.00
2023-03-19T10:18:38.204Z,24224.00
2023-03-19T10:20:38.052Z,25376.00
2023-03-19T10:21:37.977Z,24672.00
2023-03-19T10:22:37.901Z,20320.00
2023-03-19T10:23:37.829Z,21888.00
2023-03-19T10:24:37.786Z,20448.00
2023-03-19T10:25:39.753Z,18880.00
2023-03-19T10:26:37.708Z,16032.00
2023-03-19T10:27:37.529Z,13824.00
2023-03-19T10:28:37.456Z,15664.00
2023-03-19T10:29:37.383Z,14448.00
2023-03-19T10:30:37.310Z,11088.00
2023-03-19T10:31:37.247Z,15132.00
2023-03-19T10:32:37.240Z,13444.00
2023-03-19T10:33:37.088Z,9932.00
2023-03-19T10:34:37.016Z,7224.00
2023-03-19T10:35:37.493Z,9040.00
2023-03-19T10:36:36.868Z,7052.00
2023-03-19T10:37:36.793Z,6584.00
2023-03-19T10:38:36.719Z,6608.00
2023-03-19T10:39:36.665Z,7248.00
2023-03-19T10:40:36.588Z,10356.00
2023-03-19T10:41:36.497Z,8712.00
2023-03-19T10:42:36.449Z,8432.00
2023-03-19T10:43:36.361Z,8432.00
2023-03-19T10:44:36.277Z,10744.00
2023-03-19T10:45:38.582Z,11936.00
2023-03-19T10:46:36.127Z,9316.00
2023-03-19T10:47:36.261Z,14084.00
2023-03-19T10:48:36.228Z,10940.00
2023-03-19T10:49:35.903Z,9812.00
2023-03-19T10:50:35.839Z,10912.00
2023-03-19T10:51:35.757Z,11076.00
2023-03-19T10:52:35.719Z,10572.00
2023-03-19T10:53:35.646Z,17344.00
2023-03-19T10:54:35.541Z,7652.00
2023-03-19T10:55:35.774Z,13744.00
2023-03-19T10:56:35.403Z,8360.00
2023-03-19T10:57:35.312Z,11096.00
2023-03-19T10:58:35.598Z,11428.00
2023-03-19T10:59:35.413Z,11448.00
2023-03-19T11:00:35.092Z,18112.00
2023-03-19T11:01:35.010Z,23136.00
2023-03-19T11:02:34.936Z,20896.00
2023-03-19T11:03:34.913Z,15012.00
2023-03-19T11:04:34.790Z,21088.00
2023-03-19T11:05:35.113Z,30656.00
2023-03-19T11:06:34.689Z,32096.00
2023-03-19T11:07:34.566Z,31040.00
2023-03-19T11:08:35.976Z,32640.00
2023-03-19T11:09:34.823Z,22208.00
2023-03-19T11:10:34.355Z,25152.00
2023-03-19T11:11:34.477Z,31840.00
2023-03-19T11:12:34.264Z,30624.00
2023-03-19T11:13:34.132Z,32992.00
2023-03-19T11:14:34.052Z,31680.00
2023-03-19T11:15:34.277Z,12236.00
2023-03-19T11:16:33.975Z,14644.00
2023-03-19T11:17:33.832Z,13608.00
2023-03-19T11:18:33.763Z,14404.00
2023-03-19T11:19:33.703Z,13372.00
2023-03-19T11:20:33.652Z,11912.00
2023-03-19T11:21:33.544Z,11060.00
2023-03-19T11:22:33.476Z,10612.00
2023-03-19T11:23:33.398Z,10676.00
2023-03-19T11:24:33.329Z,11680.00
2023-03-19T11:25:33.550Z,13268.00
2023-03-19T11:26:33.182Z,13828.00
2023-03-19T11:27:33.111Z,14628.00
2023-03-19T11:28:33.234Z,14840.00
2023-03-19T11:29:32.968Z,14664.00
2023-03-19T11:30:32.901Z,15424.00
2023-03-19T11:31:32.865Z,18880.00
2023-03-19T11:32:33.047Z,16480.00
2023-03-19T11:33:32.678Z,13740.00
2023-03-19T11:34:32.598Z,13692.00
2023-03-19T11:35:33.657Z,13288.00
2023-03-19T11:36:32.458Z,14072.00
2023-03-19T11:37:32.381Z,13176.00
2023-03-19T11:38:32.305Z,12136.00
2023-03-19T11:39:32.236Z,11540.00
2023-03-19T11:40:32.158Z,12408.00
2023-03-19T11:41:32.108Z,20448.00
2023-03-19T11:42:32.013Z,21632.00
2023-03-19T11:43:31.999Z,18016.00
2023-03-19T11:44:31.889Z,21376.00
2023-03-19T11:45:31.821Z,25312.00
2023-03-19T11:46:31.772Z,32384.00
2023-03-19T11:47:31.648Z,62880.00
2023-03-19T11:48:31.625Z,66368.00
2023-03-19T11:49:31.501Z,46912.00
2023-03-19T11:50:31.433Z,47584.00
2023-03-19T11:51:31.358Z,26112.00
2023-03-19T11:52:31.286Z,19968.00
2023-03-19T11:53:31.221Z,25248.00
2023-03-19T11:54:31.152Z,28768.00
2023-03-19T11:55:31.072Z,59680.00
2023-03-19T11:56:31.002Z,72480.00
2023-03-19T11:57:31.130Z,77760.00
2023-03-19T11:58:30.864Z,73344.00
2023-03-19T12:00:18.499Z,48064.00
2023-03-19T12:01:18.832Z,75584.00
2023-03-19T12:03:19.560Z,34752.00
2023-03-19T12:06:18.061Z,63552.00
2023-03-19T12:07:17.994Z,78368.00
2023-03-19T12:08:17.905Z,26720.00
2023-03-19T12:09:17.879Z,17600.00
2023-03-19T12:10:17.769Z,20000.00
2023-03-19T12:17:09.873Z,25824.00
2023-03-19T12:18:09.784Z,44736.00
2023-03-19T12:19:09.714Z,25216.00
2023-03-19T12:20:09.642Z,16992.00
2023-03-19T12:21:09.576Z,13008.00
2023-03-19T12:22:09.502Z,14036.00
2023-03-19T12:23:09.436Z,9940.00
2023-03-19T12:24:09.368Z,9296.00
2023-03-19T12:25:09.295Z,9152.00
2023-03-19T12:28:36.145Z,5404.00
2023-03-19T12:29:34.805Z,5372.00
2023-03-19T12:30:34.734Z,5832.00
2023-03-19T12:31:34.787Z,6844.00
2023-03-19T12:32:34.671Z,7632.00
2023-03-19T12:33:34.519Z,7732.00
2023-03-19T12:34:34.445Z,7984.00
2023-03-19T12:35:34.842Z,7380.00
2023-03-19T12:36:34.304Z,6296.00
2023-03-19T12:37:34.243Z,5492.00
2023-03-19T12:38:34.156Z,5080.00
2023-03-19T12:39:34.081Z,4708.00
2023-03-19T12:40:34.010Z,4380.00
2023-03-19T12:41:33.936Z,4440.00
2023-03-19T12:42:33.917Z,4804.00
2023-03-19T12:43:33.792Z,5904.00
2023-03-19T12:44:33.716Z,7100.00
2023-03-19T12:45:34.003Z,7640.00
2023-03-19T12:46:33.594Z,7404.00
2023-03-19T12:47:33.493Z,6740.00
2023-03-19T12:48:33.441Z,6380.00
2023-03-19T12:49:33.348Z,6440.00
2023-03-19T12:50:33.591Z,6716.00
2023-03-19T12:51:33.200Z,6936.00
2023-03-19T12:52:33.127Z,7112.00
2023-03-19T12:54:30.546Z,6100.00
2023-03-19T12:55:30.472Z,5692.00
2023-03-19T12:56:30.403Z,5728.00
2023-03-19T12:57:30.326Z,5636.00
2023-03-19T13:12:38.322Z,3104.00
2023-03-19T13:23:37.493Z,2188.00
2023-03-19T13:24:37.371Z,2428.00
2023-03-19T13:25:37.346Z,2760.00
2023-03-19T13:26:37.221Z,3240.00
2023-03-19T13:27:37.144Z,3832.00
2023-03-19T13:28:37.096Z,4192.00
2023-03-19T13:29:36.998Z,4136.00
2023-03-19T13:30:36.921Z,3928.00
2023-03-19T13:31:36.922Z,4268.00
2023-03-19T13:32:36.829Z,4208.00
2023-03-19T13:33:36.689Z,3428.00
2023-03-19T13:34:36.618Z,3008.00
2023-03-19T13:35:36.652Z,2904.00
2023-03-19T13:36:36.462Z,2752.00
2023-03-19T14:23:53.218Z,10052.00
2023-03-19T14:24:56.650Z,10188.00
2023-03-19T14:25:52.745Z,9768.00
2023-03-19T14:26:52.853Z,9360.00
2023-03-19T14:27:52.566Z,8940.00
2023-03-19T14:28:52.485Z,8548.00
2023-03-19T14:29:52.410Z,8196.00
2023-03-19T14:30:52.333Z,7788.00
2023-03-19T14:31:52.356Z,7376.00
2023-03-19T14:32:52.261Z,7204.00
2023-03-19T14:33:52.111Z,7368.00
2023-03-19T14:34:52.028Z,7396.00
2023-03-19T14:35:52.044Z,7420.00
2023-03-19T14:36:51.875Z,7656.00
2023-03-19T14:37:51.798Z,7420.00
2023-03-19T14:38:51.718Z,7052.00
2023-03-19T14:39:51.666Z,6660.00
2023-03-19T14:40:51.571Z,6476.00
2023-03-19T14:41:51.694Z,5756.00
2023-03-19T14:42:51.417Z,4708.00
2023-03-19T14:46:17.058Z,4388.00
2023-03-19T14:47:16.912Z,4668.00
2023-03-19T14:48:16.829Z,4412.00
2023-03-19T14:49:16.757Z,4456.00
2023-03-19T14:50:16.678Z,4120.00
2023-03-19T14:51:16.598Z,4056.00
2023-03-19T14:52:16.523Z,3732.00
2023-03-19T14:53:16.445Z,3368.00
2023-03-19T14:54:16.369Z,3020.00
2023-03-19T14:55:16.326Z,2860.00
2023-03-19T14:56:16.217Z,3304.00
2023-03-19T14:57:16.134Z,4476.00
2023-03-19T14:58:16.064Z,5600.00
2023-03-19T14:59:15.988Z,5980.00
2023-03-19T15:00:15.910Z,5684.00
2023-03-19T15:01:15.856Z,5412.00
2023-03-19T15:02:15.752Z,5044.00
2023-03-19T15:03:15.676Z,4952.00
2023-03-19T15:04:15.597Z,4728.00
2023-03-19T15:05:15.613Z,4316.00
2023-03-19T15:06:15.458Z,4828.00
2023-03-19T15:07:15.366Z,4356.00
2023-03-19T15:08:15.290Z,4040.00
2023-03-19T15:09:15.215Z,3748.00
2023-03-19T15:10:15.134Z,3880.00
2023-03-19T15:11:15.085Z,4360.00
2023-03-19T15:12:14.982Z,4780.00
2023-03-19T15:13:14.903Z,5184.00
2023-03-19T15:14:14.827Z,5876.00
2023-03-19T15:15:14.746Z,6240.00
2023-03-19T15:16:14.703Z,6680.00
2023-03-19T15:17:14.594Z,7996.00
2023-03-19T15:18:14.516Z,8832.00
2023-03-19T15:19:14.443Z,9416.00
2023-03-19T15:20:14.385Z,10668.00
2023-03-19T15:21:14.295Z,11416.00
2023-03-19T15:22:14.211Z,10560.00
2023-03-19T15:23:26.152Z,9076.00
2023-03-19T15:24:14.061Z,8712.00
2023-03-19T15:25:13.985Z,8320.00
2023-03-19T15:26:13.907Z,7552.00
2023-03-19T15:27:13.847Z,7232.00
2023-03-19T15:28:14.075Z,6716.00
2023-03-19T15:29:13.826Z,6192.00
2023-03-19T15:30:18.534Z,6176.00
2023-03-19T15:31:29.782Z,6200.00
2023-03-19T15:32:16.098Z,6208.00
2023-03-19T15:33:29.193Z,6328.00
2023-03-19T15:34:13.413Z,6412.00
2023-03-19T15:35:13.428Z,6556.00
2023-03-19T15:36:13.333Z,6188.00
2023-03-19T15:37:13.069Z,6136.00
2023-03-19T15:38:13.010Z,5928.00
2023-03-19T15:39:12.944Z,6056.00
2023-03-19T15:40:12.841Z,6172.00
2023-03-19T15:41:12.763Z,6396.00
2023-03-19T15:42:12.689Z,7668.00
2023-03-19T15:43:12.755Z,9096.00
2023-03-19T15:44:12.555Z,7820.00
2023-03-19T15:45:12.461Z,7312.00
2023-03-19T15:46:12.448Z,5852.00
2023-03-19T15:47:12.312Z,5592.00
2023-03-19T15:48:12.238Z,5280.00
2023-03-19T15:49:12.166Z,5212.00
2023-03-19T15:50:12.573Z,5184.00
2023-03-19T15:51:12.004Z,4824.00
2023-03-19T15:52:11.931Z,4648.00
2023-03-19T15:53:11.853Z,4376.00
2023-03-19T15:54:11.779Z,4308.00
2023-03-19T15:55:11.700Z,4688.00
2023-03-19T15:56:11.782Z,4224.00
2023-03-19T15:57:11.547Z,4280.00
2023-03-19T15:58:11.474Z,4284.00
2023-03-19T15:59:11.425Z,4356.00
2023-03-19T16:00:12.131Z,4836.00
2023-03-19T16:01:11.285Z,4636.00
2023-03-19T16:02:11.188Z,4904.00
2023-03-19T16:03:11.097Z,5816.00
2023-03-19T16:04:11.025Z,5368.00
2023-03-19T16:05:22.000Z,5152.00
2023-03-19T16:06:10.867Z,5012.00
2023-03-19T16:07:10.788Z,4836.00
2023-03-19T16:08:10.715Z,4608.00
2023-03-19T16:09:10.877Z,4212.00
2023-03-19T16:10:10.562Z,4272.00
2023-03-19T16:11:10.486Z,3908.00
2023-03-19T16:12:10.413Z,3564.00
2023-03-19T16:13:10.330Z,3304.00
2023-03-19T16:14:10.320Z,3172.00
2023-03-19T16:15:10.200Z,3104.00
2023-03-19T16:16:10.191Z,3060.00
2023-03-19T16:17:10.029Z,3016.00
2023-03-19T16:18:09.963Z,3000.00
2023-03-19T16:19:10.078Z,2992.00
2023-03-19T16:20:09.808Z,2972.00
2023-03-19T16:21:09.821Z,2976.00
2023-03-19T16:22:09.647Z,2980.00
2023-03-19T16:23:09.569Z,2952.00
2023-03-19T16:24:09.503Z,2932.00
2023-03-19T16:25:09.418Z,2916.00
2023-03-19T16:26:09.340Z,2888.00
2023-03-19T16:27:09.273Z,2840.00
2023-03-19T16:28:09.188Z,2764.00
2023-03-19T16:29:09.108Z,2636.00
2023-03-19T16:30:09.033Z,2548.00
2023-03-19T16:31:09.007Z,2552.00
2023-03-19T16:32:09.078Z,2576.00
2023-03-19T16:33:08.920Z,2620.00
2023-03-19T16:34:08.721Z,2664.00
2023-03-19T16:35:08.646Z,2696.00
2023-03-19T16:36:08.616Z,2716.00
2023-03-19T16:37:08.492Z,2712.00
2023-03-19T16:38:08.665Z,2684.00
2023-03-19T16:39:08.341Z,2632.00
2023-03-19T16:40:08.262Z,2576.00
2023-03-19T16:41:08.183Z,2492.00
2023-03-19T16:42:08.104Z,2432.00
2023-03-19T16:43:08.027Z,2392.00
2023-03-19T16:44:07.953Z,2360.00
2023-03-19T16:45:07.870Z,2336.00
2023-03-19T16:46:07.851Z,2312.00
2023-03-19T16:47:07.740Z,2300.00
2023-03-19T16:48:07.642Z,2292.00
2023-03-19T16:49:07.739Z,2308.00
2023-03-19T16:50:07.490Z,2312.00
2023-03-19T16:51:07.409Z,2316.00
2023-03-19T16:52:07.331Z,2328.00
2023-03-19T16:53:07.252Z,2340.00
2023-03-19T16:54:07.178Z,2328.00
2023-03-19T16:55:07.100Z,2296.00
2023-03-19T16:56:07.031Z,2256.00
2023-03-19T16:57:06.978Z,2208.00
2023-03-19T16:58:06.868Z,2160.00
2023-03-19T16:59:49.281Z,2060.00
2023-03-19T17:00:49.195Z,1996.00
2023-03-19T17:01:49.234Z,1920.00
2023-03-19T17:02:49.062Z,1840.00
2023-03-19T17:03:48.974Z,1760.00
2023-03-19T17:04:49.333Z,1676.00
2023-03-19T17:05:48.827Z,1600.00
2023-03-19T17:06:48.731Z,1532.00
2023-03-19T17:07:48.652Z,1484.00
2023-03-19T17:08:49.194Z,1440.00
2023-03-19T17:09:48.498Z,1400.00
2023-03-19T17:10:48.550Z,1352.00
2023-03-19T17:11:48.342Z,1300.00
2023-03-19T17:12:48.265Z,1232.00
2023-03-19T17:13:48.197Z,1168.00
2023-03-19T17:14:48.110Z,1112.00
2023-03-19T17:15:48.053Z,1048.00
2023-03-19T17:16:47.965Z,980.00
2023-03-19T17:17:48.184Z,912.00
2023-03-19T17:18:47.863Z,836.00
2023-03-19T17:19:47.723Z,752.00
2023-03-19T17:20:47.645Z,676.00
2023-03-19T17:21:47.570Z,608.00
2023-03-19T17:22:47.488Z,552.00
2023-03-19T17:23:48.829Z,500.00
2023-03-19T17:24:47.339Z,456.00
2023-03-19T17:25:47.258Z,412.00
2023-03-19T17:26:47.288Z,376.00
2023-03-19T17:27:47.117Z,344.00
2023-03-19T17:28:47.024Z,316.00
2023-03-19T17:29:46.948Z,288.00
2023-03-19T17:30:46.869Z,260.00
2023-03-19T17:31:46.831Z,232.00
2023-03-19T17:32:46.750Z,208.00
2023-03-19T17:33:46.637Z,184.00
2023-03-19T17:34:46.578Z,164.00
2023-03-19T17:35:46.494Z,144.00
2023-03-19T17:36:46.400Z,128.00
2023-03-19T17:37:46.327Z,116.00
2023-03-19T17:38:46.246Z,100.00
2023-03-19T17:41:46.064Z,68.00
2023-03-19T17:42:52.438Z,60.00
2023-03-19T17:44:46.221Z,44.00
2023-03-19T17:45:46.153Z,36.00
2023-03-19T17:46:46.072Z,32.00
2023-03-19T17:47:46.494Z,28.00
2023-03-19T17:49:45.835Z,20.00
2023-03-19T17:50:45.328Z,16.00
2023-03-19T17:51:45.247Z,12.00
2023-03-19T17:52:45.774Z,12.00
2023-03-19T17:53:45.072Z,8.00
2023-03-19T17:54:45.025Z,8.00
2023-03-19T17:55:44.920Z,8.00
2023-03-19T17:56:44.937Z,4.00
2023-03-19T17:57:44.759Z,4.00
2023-03-19T17:58:44.678Z,4.00
2023-03-19T17:59:44.607Z,0.00
2023-03-19T18:00:44.588Z,4.00
2023-03-19T18:01:44.443Z,4.00
2023-03-19T18:02:44.365Z,0.00
2023-03-19T18:03:44.315Z,0.00
2023-03-19T18:04:44.212Z,0.00
2023-03-19T18:05:44.126Z,0.00
2023-03-19T18:06:44.071Z,0.00
2023-03-19T18:07:43.969Z,0.00
2023-03-19T18:08:43.887Z,0.00
2023-03-19T18:09:43.810Z,0.00
2023-03-19T18:10:43.729Z,0.00
2023-03-19T18:11:43.649Z,0.00
2023-03-19T18:12:43.568Z,0.00
2023-03-19T18:16:49.328Z,0.00
2023-03-19T18:17:49.130Z,0.00
2023-03-19T18:18:49.042Z,0.00
2023-03-19T18:19:48.967Z,0.00
2023-03-19T18:20:48.883Z,0.00
2023-03-19T18:21:48.817Z,0.00
2023-03-19T18:22:48.718Z,0.00
2023-03-19T18:23:48.634Z,0.00
2023-03-19T18:24:48.564Z,0.00
2023-03-19T18:25:48.476Z,0.00
2023-03-19T18:26:48.396Z,0.00
2023-03-19T18:27:48.318Z,0.00
2023-03-19T18:28:48.234Z,0.00
2023-03-19T18:29:48.253Z,0.00
2023-03-19T18:30:48.109Z,0.00
2023-03-19T18:31:48.030Z,0.00
2023-03-19T18:32:47.992Z,0.00
2023-03-19T18:33:47.832Z,0.00
2023-03-19T18:34:47.753Z,0.00
2023-03-19T18:35:47.729Z,0.00
2023-03-19T18:36:47.592Z,0.00
2023-03-19T18:37:47.632Z,0.00
2023-03-19T18:38:47.435Z,0.00
2023-03-19T18:39:47.353Z,0.00
2023-03-19T18:40:47.474Z,0.00
2023-03-19T18:41:47.215Z,0.00
2023-03-19T18:42:47.138Z,0.00
2023-03-19T18:43:47.090Z,0.00
2023-03-19T18:44:46.957Z,0.00
2023-03-19T18:45:46.949Z,0.00
2023-03-19T18:46:46.797Z,0.00
2023-03-19T18:47:46.724Z,0.00
2023-03-19T18:48:46.635Z,0.00
2023-03-19T18:49:46.557Z,0.00
2023-03-19T18:50:46.481Z,0.00
2023-03-19T18:52:01.086Z,0.00
2023-03-19T18:52:46.323Z,0.00
2023-03-19T18:53:46.254Z,0.00
2023-03-19T18:54:46.157Z,0.00
2023-03-19T18:55:46.337Z,0.00
2023-03-19T18:56:45.998Z,0.00
2023-03-19T18:57:53.213Z,0.00
2023-03-19T18:58:45.841Z,0.00
2023-03-19T18:59:45.788Z,0.00
2023-03-19T19:00:45.738Z,0.00
2023-03-19T19:01:45.609Z,0.00
2023-03-19T19:02:45.517Z,0.00
2023-03-19T19:03:45.486Z,0.00
2023-03-19T19:04:45.392Z,0.00
2023-03-19T19:05:45.278Z,0.00
2023-03-19T19:06:48.082Z,0.00
2023-03-19T19:07:45.118Z,0.00
2023-03-19T19:08:45.088Z,0.00
2023-03-19T19:09:44.982Z,0.00
2023-03-19T19:10:44.883Z,0.00
2023-03-19T19:11:44.799Z,0.00
2023-03-19T19:12:44.721Z,0.00
2023-03-19T19:13:55.381Z,0.00
2023-03-19T19:14:44.559Z,0.00
2023-03-19T19:15:44.480Z,0.00
2023-03-19T19:16:44.516Z,0.00
2023-03-19T19:17:44.324Z,0.00
2023-03-19T19:18:44.241Z,0.00
2023-03-19T19:19:44.311Z,0.00
2023-03-19T19:20:44.082Z,0.00
2023-03-19T19:21:44.003Z,0.00
2023-03-19T19:22:43.924Z,0.00
2023-03-19T19:23:43.844Z,0.00
2023-03-19T19:24:43.777Z,0.00
2023-03-19T19:25:43.704Z,0.00
2023-03-19T19:26:43.605Z,0.00
2023-03-19T19:27:43.525Z,0.00
2023-03-19T19:28:43.478Z,0.00
2023-03-19T19:29:43.365Z,0.00
2023-03-19T19:30:43.330Z,0.00
2023-03-19T19:31:43.216Z,0.00
2023-03-19T19:32:43.177Z,0.00
2023-03-19T19:33:43.046Z,0.00
2023-03-19T19:34:42.990Z,0.00
2023-03-19T19:35:42.914Z,0.00
2023-03-19T19:36:42.807Z,0.00
2023-03-19T19:37:42.742Z,0.00
2023-03-19T19:38:42.650Z,0.00
2023-03-19T19:39:42.574Z,0.00
2023-03-19T19:40:42.490Z,0.00
2023-03-19T19:41:42.431Z,0.00
2023-03-19T19:42:42.351Z,0.00
2023-03-19T19:43:42.253Z,0.00
2023-03-19T19:44:42.188Z,0.00
2023-03-19T19:45:42.192Z,0.00
2023-03-19T19:46:42.017Z,0.00
2023-03-19T19:47:41.932Z,0.00
2023-03-19T19:48:41.873Z,0.00
2023-03-19T19:49:41.773Z,0.00
2023-03-19T19:50:41.694Z,0.00
2023-03-19T19:51:41.612Z,0.00
2023-03-19T19:52:41.532Z,0.00
2023-03-19T19:53:41.454Z,0.00
2023-03-19T19:54:41.384Z,0.00
2023-03-19T19:55:41.492Z,0.00
2023-03-19T19:56:41.211Z,0.00
2023-03-19T19:57:41.172Z,0.00
2023-03-19T19:58:41.057Z,0.00
2023-03-19T19:59:41.217Z,0.00
2023-03-19T20:00:47.670Z,0.00
2023-03-19T20:01:40.855Z,0.00
2023-03-19T20:02:40.777Z,0.00
2023-03-19T20:03:40.736Z,0.00
2023-03-19T20:04:40.578Z,0.00
2023-03-19T20:05:40.485Z,0.00
2023-03-19T20:06:40.405Z,0.00
2023-03-19T20:07:40.326Z,0.00
2023-03-19T20:08:40.245Z,0.00
2023-03-19T20:09:40.364Z,0.00
2023-03-19T20:10:40.080Z,0.00
2023-03-19T20:11:40.003Z,0.00
2023-03-19T20:12:40.378Z,0.00
2023-03-19T20:13:39.894Z,0.00
2023-03-19T20:14:39.756Z,0.00
2023-03-19T20:15:39.733Z,0.00
2023-03-19T20:16:39.592Z,0.00
2023-03-19T20:17:39.512Z,0.00
2023-03-19T20:18:39.432Z,0.00
2023-03-19T20:19:39.546Z,0.00
2023-03-19T20:20:39.268Z,0.00
2023-03-19T20:21:39.200Z,0.00
2023-03-19T20:22:39.114Z,0.00
2023-03-19T20:23:39.019Z,0.00
2023-03-19T20:24:38.941Z,0.00
2023-03-19T20:25:38.912Z,0.00
2023-03-19T20:26:38.878Z,0.00
2023-03-19T20:27:38.698Z,0.00
2023-03-19T20:28:38.615Z,0.00
2023-03-19T20:29:38.602Z,0.00
2023-03-19T20:30:38.449Z,0.00
2023-03-19T20:31:38.371Z,0.00
2023-03-19T20:32:38.507Z,0.00
2023-03-19T20:33:38.204Z,0.00
2023-03-19T20:34:39.654Z,0.00
2023-03-19T20:35:38.605Z,0.00
2023-03-19T20:36:37.967Z,0.00
2023-03-19T20:37:37.879Z,0.00
2023-03-19T20:38:37.796Z,0.00
2023-03-19T20:39:37.713Z,0.00
2023-03-19T20:40:37.632Z,0.00
2023-03-19T20:41:37.749Z,0.00
2023-03-19T20:47:37.093Z,0.00
2023-03-19T20:48:36.975Z,0.00
2023-03-19T20:49:36.893Z,0.00
2023-03-19T20:50:36.916Z,0.00
2023-03-19T20:51:36.856Z,0.00
2023-03-19T20:52:36.654Z,0.00
2023-03-19T20:53:36.565Z,0.00
2023-03-19T20:54:36.484Z,0.00
2023-03-19T20:55:36.764Z,0.00
2023-03-19T20:56:36.330Z,0.00
2023-03-19T20:57:36.236Z,0.00
2023-03-19T20:58:36.153Z,0.00
2023-03-19T20:59:36.071Z,0.00
2023-03-19T21:00:35.991Z,0.00
2023-03-19T21:01:35.944Z,0.00
2023-03-19T21:02:35.871Z,0.00
2023-03-19T21:03:35.793Z,0.00
2023-03-19T21:04:35.665Z,0.00
2023-03-19T21:05:35.938Z,0.00
2023-03-19T21:06:50.139Z,0.00
2023-03-19T21:07:35.423Z,0.00
2023-03-19T21:08:35.332Z,0.00
2023-03-19T21:09:35.250Z,0.00
2023-03-19T21:10:35.168Z,0.00
2023-03-19T21:11:35.085Z,0.00
2023-03-19T21:12:35.005Z,0.00
2023-03-19T21:13:34.921Z,0.00
2023-03-19T21:14:34.873Z,0.00
2023-03-19T21:15:35.106Z,0.00
2023-03-19T21:16:34.740Z,0.00
2023-03-19T21:17:34.592Z,0.00
2023-03-19T21:18:34.512Z,0.00
2023-03-19T21:19:34.457Z,0.00
2023-03-19T21:20:34.766Z,0.00
2023-03-19T21:21:34.284Z,0.00
2023-03-19T21:22:34.188Z,0.00
2023-03-19T21:23:34.309Z,0.00
2023-03-19T21:24:34.024Z,0.00
2023-03-19T21:25:34.212Z,0.00
2023-03-19T21:26:33.858Z,0.00
2023-03-19T21:27:33.782Z,0.00
2023-03-19T21:28:33.696Z,0.00
2023-03-19T21:29:33.635Z,0.00
2023-03-19T21:30:33.528Z,0.00
2023-03-19T21:31:33.898Z,0.00
2023-03-19T21:32:33.423Z,0.00
2023-03-19T21:33:33.299Z,0.00
2023-03-19T21:34:33.203Z,0.00
2023-03-19T21:35:33.384Z,0.00
2023-03-19T21:36:33.043Z,0.00
2023-03-19T21:37:33.310Z,0.00
2023-03-19T21:38:32.920Z,0.00
2023-03-19T21:39:32.791Z,0.00
2023-03-19T21:40:32.709Z,0.00
2023-03-19T21:41:32.652Z,0.00
2023-03-19T21:42:32.542Z,0.00
2023-03-19T21:43:32.469Z,0.00
2023-03-19T21:44:32.377Z,0.00
2023-03-19T21:45:32.294Z,0.00
2023-03-19T21:47:32.334Z,0.00
2023-03-19T21:48:32.084Z,0.00
2023-03-19T21:49:32.004Z,0.00
2023-03-19T21:50:31.930Z,0.00
2023-03-19T21:51:32.394Z,0.00
2023-03-19T21:52:39.816Z,0.00
2023-03-19T21:53:31.645Z,0.00
2023-03-19T21:54:31.556Z,0.00
2023-03-19T21:55:31.523Z,0.00
2023-03-19T21:56:31.390Z,0.00
2023-03-19T21:57:31.321Z,0.00
2023-03-19T21:58:31.233Z,0.00
2023-03-19T21:59:31.145Z,0.00
2023-03-19T22:00:31.092Z,0.00
2023-03-19T22:01:30.981Z,0.00
2023-03-19T22:02:30.896Z,0.00
2023-03-19T22:03:30.867Z,0.00
2023-03-19T22:04:30.738Z,0.00
2023-03-19T22:05:30.657Z,0.00
2023-03-19T22:06:31.015Z,0.00
2023-03-19T22:07:30.506Z,0.00
2023-03-19T22:08:30.401Z,0.00
2023-03-19T22:09:30.368Z,0.00
2023-03-19T22:10:30.244Z,0.00
2023-03-19T22:11:30.152Z,0.00
2023-03-19T22:12:30.069Z,0.00
2023-03-19T22:13:29.988Z,0.00
2023-03-19T22:14:29.906Z,0.00
2023-03-19T22:15:29.822Z,0.00
2023-03-19T22:16:29.941Z,0.00
2023-03-19T22:17:29.664Z,0.00
2023-03-19T22:18:29.574Z,0.00
2023-03-19T22:19:29.500Z,0.00
2023-03-19T22:20:29.412Z,0.00
2023-03-19T22:21:29.328Z,0.00
2023-03-19T22:22:29.247Z,0.00
2023-03-19T22:23:29.207Z,0.00
2023-03-19T22:24:29.079Z,0.00
2023-03-19T22:25:29.000Z,0.00
2023-03-19T22:26:28.923Z,0.00
2023-03-19T22:27:28.833Z,0.00
2023-03-19T22:28:28.749Z,0.00
2023-03-19T22:29:28.671Z,0.00
2023-03-19T22:30:28.589Z,0.00
2023-03-19T22:31:28.619Z,0.00
2023-03-19T22:32:28.424Z,0.00
2023-03-19T22:33:28.348Z,0.00
2023-03-19T22:34:28.270Z,0.00
2023-03-19T22:35:28.178Z,0.00
2023-03-19T22:36:28.106Z,0.00
2023-03-19T22:37:28.412Z,0.00
2023-03-19T22:38:27.930Z,0.00
2023-03-19T22:39:27.866Z,0.00
2023-03-19T22:40:27.784Z,0.00
2023-03-19T22:41:27.686Z,0.00
2023-03-19T22:42:27.602Z,0.00
2023-03-19T22:43:27.520Z,0.00
2023-03-19T22:44:27.436Z,0.00
2023-03-19T22:45:27.357Z,0.00
2023-03-19T22:46:27.303Z,0.00
2023-03-19T22:47:27.191Z,0.00
2023-03-19T22:48:27.114Z,0.00
2023-03-19T22:49:27.376Z,0.00
2023-03-19T22:50:26.950Z,0.00
2023-03-19T22:51:26.860Z,0.00
2023-03-19T22:52:26.780Z,0.00
2023-03-19T22:53:26.900Z,0.00
2023-03-19T22:54:26.629Z,0.00
2023-03-19T22:55:26.557Z,0.00
2023-03-19T22:56:26.607Z,0.00
2023-03-19T22:57:26.388Z,0.00
2023-03-19T22:58:26.285Z,0.00
2023-03-19T22:59:26.201Z,0.00
2023-03-19T23:00:26.482Z,0.00
2023-03-19T23:01:26.095Z,0.00
2023-03-19T23:02:25.956Z,0.00
2023-03-19T23:03:25.871Z,0.00
2023-03-19T23:04:25.891Z,0.00
2023-03-19T23:05:25.705Z,0.00
2023-03-19T23:06:31.011Z,0.00
2023-03-19T23:07:25.538Z,0.00
2023-03-19T23:08:25.455Z,0.00
2023-03-19T23:09:25.376Z,0.00
2023-03-19T23:10:25.292Z,0.00
2023-03-19T23:11:25.353Z,0.00
2023-03-19T23:12:25.123Z,0.00
2023-03-19T23:13:25.041Z,0.00
2023-03-19T23:14:31.869Z,0.00
2023-03-19T23:15:24.895Z,0.00
2023-03-19T23:16:24.952Z,0.00
2023-03-19T23:17:24.718Z,0.00
2023-03-19T23:18:24.629Z,0.00
2023-03-19T23:19:24.795Z,0.00
2023-03-19T23:20:24.473Z,0.00
2023-03-19T23:21:24.380Z,0.00
2023-03-19T23:22:24.299Z,0.00
2023-03-19T23:23:24.217Z,0.00
2023-03-19T23:24:24.140Z,0.00
2023-03-19T23:25:24.050Z,0.00
2023-03-19T23:26:24.069Z,0.00
2023-03-19T23:27:23.947Z,0.00
2023-03-19T23:28:23.805Z,0.00
2023-03-19T23:29:24.528Z,0.00
2023-03-19T23:30:23.646Z,0.00
2023-03-19T23:31:23.556Z,0.00
2023-03-19T23:32:23.523Z,0.00
2023-03-19T23:33:23.393Z,0.00
2023-03-19T23:34:23.319Z,0.00
2023-03-19T23:35:23.233Z,0.00
2023-03-19T23:36:23.147Z,0.00
2023-03-19T23:37:23.122Z,0.00
2023-03-19T23:38:22.982Z,0.00
2023-03-19T23:39:22.894Z,0.00
2023-03-19T23:40:22.817Z,0.00
2023-03-19T23:41:23.038Z,0.00
2023-03-19T23:42:22.652Z,0.00
2023-03-19T23:43:22.586Z,0.00
2023-03-19T23:44:22.538Z,0.00
2023-03-19T23:45:22.405Z,0.00
2023-03-19T23:46:22.401Z,0.00
2023-03-19T23:47:22.436Z,0.00
2023-03-19T23:48:22.155Z,0.00
2023-03-19T23:49:22.077Z,0.00
2023-03-19T23:50:21.987Z,0.00
2023-03-19T23:51:21.905Z,0.00
2023-03-19T23:52:21.830Z,0.00
2023-03-19T23:53:21.741Z,0.00
2023-03-19T23:54:21.659Z,0.00
2023-03-19T23:55:21.578Z,0.00
2023-03-19T23:56:21.500Z,0.00
2023-03-19T23:57:21.417Z,0.00
2023-03-19T23:58:21.328Z,0.00
2023-03-19T23:59:21.264Z,0.00
